Time;durP1;ratioP1;P1;durP2;ratioP2;P2;SDS_P1;SDS_P2;PMS_P1;PMS_P2;Temp;Humidity;BMP_temperature;BMP_pressure;BME280_temperature;BME280_humidity;BME280_pressure;Samples;Min_cycle;Max_cycle;Signal;HPM_P1;HPM_P2
2021/07/03 00:01:54;;;;;;;3.47;3.17;;;12.90;99.90;;;;;;5052440;28;20060;-64
2021/07/03 00:04:20;;;;;;;4.47;3.45;;;12.90;99.90;;;;;;5052635;28;20080;-64
2021/07/03 00:06:46;;;;;;;4.57;3.85;;;12.90;99.90;;;;;;5052364;28;20033;-65
2021/07/03 00:09:12;;;;;;;4.05;3.40;;;12.80;99.90;;;;;;5052298;28;20079;-64
2021/07/03 00:11:39;;;;;;;4.53;4.13;;;12.80;99.90;;;;;;5052191;28;20052;-64
2021/07/03 00:14:07;;;;;;;4.95;4.55;;;12.80;99.90;;;;;;5052324;28;20136;-65
2021/07/03 00:16:34;;;;;;;4.97;4.55;;;12.70;99.90;;;;;;5052475;28;20029;-65
2021/07/03 00:18:59;;;;;;;6.22;4.97;;;12.70;99.90;;;;;;5052233;28;20059;-65
2021/07/03 00:21:25;;;;;;;6.35;5.45;;;12.70;99.90;;;;;;5052219;28;20045;-68
2021/07/03 00:23:51;;;;;;;6.15;5.55;;;12.70;99.90;;;;;;5052090;28;20036;-66
2021/07/03 00:26:17;;;;;;;6.85;5.93;;;12.70;99.90;;;;;;5052020;28;20517;-68
2021/07/03 00:28:43;;;;;;;6.00;5.28;;;12.70;99.90;;;;;;5051853;28;20084;-68
2021/07/03 00:31:08;;;;;;;6.20;5.50;;;12.60;99.90;;;;;;5052099;28;20478;-68
2021/07/03 00:33:34;;;;;;;7.72;6.22;;;12.60;99.90;;;;;;5051912;28;20040;-66
2021/07/03 00:35:59;;;;;;;6.70;5.85;;;12.70;99.90;;;;;;5052052;28;20478;-66
2021/07/03 00:38:25;;;;;;;7.00;6.38;;;12.60;99.90;;;;;;5051871;28;20063;-66
2021/07/03 00:40:52;;;;;;;7.03;6.32;;;12.60;99.90;;;;;;5051813;28;20079;-65
2021/07/03 00:43:18;;;;;;;8.02;6.90;;;12.60;99.90;;;;;;5051669;28;20439;-66
2021/07/03 00:45:43;;;;;;;8.73;6.90;;;12.60;99.90;;;;;;5050486;28;20071;-66
2021/07/03 00:48:09;;;;;;;11.10;7.32;;;12.60;99.90;;;;;;5051451;28;20481;-66
2021/07/03 00:50:35;;;;;;;8.88;6.70;;;12.50;99.90;;;;;;5051638;28;20128;-66
2021/07/03 00:53:01;;;;;;;6.15;5.63;;;12.50;99.90;;;;;;5051397;28;20044;-66
2021/07/03 00:55:27;;;;;;;6.40;5.80;;;12.50;99.90;;;;;;5051129;28;20037;-66
2021/07/03 00:57:53;;;;;;;7.03;6.05;;;12.50;99.90;;;;;;5050037;28;20037;-65
2021/07/03 01:00:21;;;;;;;8.50;6.85;;;12.50;99.90;;;;;;5051464;28;20490;-66
2021/07/03 01:02:46;;;;;;;7.63;6.00;;;12.40;99.90;;;;;;5051503;28;20036;-66
2021/07/03 01:05:13;;;;;;;6.82;5.53;;;12.40;99.90;;;;;;5051450;28;20116;-65
2021/07/03 01:07:39;;;;;;;5.57;4.40;;;12.40;99.90;;;;;;5033418;28;20087;-65
2021/07/03 01:10:15;;;;;;;6.55;4.10;;;12.30;99.90;;;;;;5050924;28;20044;-65
2021/07/03 01:12:41;;;;;;;5.88;5.18;;;12.30;99.90;;;;;;5032590;28;20052;-66
2021/07/03 01:15:07;;;;;;;7.80;5.68;;;12.20;99.90;;;;;;5051313;28;20548;-66
2021/07/03 01:17:32;;;;;;;10.73;5.65;;;12.10;99.90;;;;;;5051067;28;20544;-66
2021/07/03 01:19:58;;;;;;;6.40;5.70;;;12.00;99.90;;;;;;5051074;28;20049;-66
2021/07/03 01:22:24;;;;;;;7.60;5.50;;;11.90;99.90;;;;;;5050984;28;20487;-66
2021/07/03 01:24:50;;;;;;;5.60;4.53;;;11.80;99.90;;;;;;5050916;28;20114;-66
2021/07/03 01:27:16;;;;;;;5.30;4.80;;;11.80;99.90;;;;;;5051209;28;20120;-66
2021/07/03 01:29:43;;;;;;;4.60;3.60;;;11.70;99.90;;;;;;5050737;28;20037;-65
2021/07/03 01:32:09;;;;;;;5.22;4.20;;;11.80;99.90;;;;;;5050871;28;20040;-65
2021/07/03 01:34:35;;;;;;;5.75;3.85;;;11.70;99.90;;;;;;5050610;28;20048;-65
2021/07/03 01:37:01;;;;;;;5.20;3.63;;;11.70;99.90;;;;;;5050710;28;20083;-65
2021/07/03 01:39:27;;;;;;;6.30;3.95;;;11.70;99.90;;;;;;5049449;28;20041;-65
2021/07/03 01:41:53;;;;;;;6.25;3.60;;;11.70;99.90;;;;;;5050740;28;20479;-66
2021/07/03 01:44:27;;;;;;;6.88;4.22;;;11.70;99.90;;;;;;5050544;28;20053;-65
2021/07/03 01:46:58;;;;;;;6.55;4.30;;;11.70;99.90;;;;;;5050962;28;20044;-66
2021/07/03 01:49:25;;;;;;;7.95;5.07;;;11.70;99.90;;;;;;5050494;28;20398;-66
2021/07/03 01:51:52;;;;;;;9.88;5.97;;;11.70;99.90;;;;;;5032744;28;20544;-66
2021/07/03 01:54:18;;;;;;;7.15;5.20;;;11.70;99.90;;;;;;5049319;28;20045;-66
2021/07/03 01:56:45;;;;;;;7.25;5.63;;;11.80;99.90;;;;;;5050394;28;20391;-66
2021/07/03 01:59:11;;;;;;;8.35;6.07;;;11.80;99.90;;;;;;5050348;28;20041;-66
2021/07/03 02:01:38;;;;;;;8.55;6.40;;;11.80;99.90;;;;;;5050406;28;20041;-66
2021/07/03 02:04:04;;;;;;;20.15;8.43;;;11.80;99.90;;;;;;5050263;28;20039;-66
2021/07/03 02:06:30;;;;;;;10.75;7.90;;;11.70;99.90;;;;;;5050158;28;20131;-66
2021/07/03 02:08:56;;;;;;;9.90;6.95;;;11.70;99.90;;;;;;5049299;28;20041;-66
2021/07/03 02:11:22;;;;;;;9.52;6.45;;;11.70;99.90;;;;;;5050112;28;20487;-65
2021/07/03 02:13:48;;;;;;;8.88;5.85;;;11.70;99.90;;;;;;5050351;28;20044;-65
2021/07/03 02:16:13;;;;;;;8.90;5.50;;;11.70;99.90;;;;;;5050276;28;20040;-66
2021/07/03 02:18:39;;;;;;;8.35;4.97;;;11.70;99.90;;;;;;5050195;28;20057;-66
2021/07/03 02:21:05;;;;;;;6.43;5.05;;;11.70;99.90;;;;;;5050022;28;20044;-66
2021/07/03 02:23:30;;;;;;;6.93;5.65;;;11.70;99.90;;;;;;5050331;28;20469;-66
2021/07/03 02:25:56;;;;;;;7.18;6.15;;;11.70;99.90;;;;;;5050050;28;20519;-66
2021/07/03 02:28:22;;;;;;;7.55;6.38;;;11.70;99.90;;;;;;5050120;28;20049;-66
2021/07/03 02:30:47;;;;;;;7.25;6.25;;;11.70;99.90;;;;;;5049995;28;20037;-65
2021/07/03 02:33:13;;;;;;;7.55;6.53;;;11.60;99.90;;;;;;5050122;28;20411;-66
2021/07/03 02:35:39;;;;;;;7.75;6.50;;;11.60;99.90;;;;;;5049916;28;20053;-66
2021/07/03 02:38:06;;;;;;;9.52;5.97;;;11.60;99.90;;;;;;5050232;28;20037;-66
2021/07/03 02:40:31;;;;;;;5.65;3.97;;;11.60;99.90;;;;;;5050277;28;20118;-66
2021/07/03 02:42:57;;;;;;;5.45;3.60;;;11.40;99.90;;;;;;5050053;28;20033;-65
2021/07/03 02:45:23;;;;;;;4.80;3.30;;;11.40;99.90;;;;;;5050171;28;20044;-66
2021/07/03 02:47:49;;;;;;;3.83;3.00;;;11.40;99.90;;;;;;5049966;28;20467;-66
2021/07/03 02:50:19;;;;;;;4.63;2.90;;;11.40;99.90;;;;;;5049576;28;20040;-66
2021/07/03 02:52:45;;;;;;;2.90;2.50;;;11.40;99.90;;;;;;5049835;28;20040;-65
2021/07/03 02:55:12;;;;;;;3.72;3.10;;;11.40;99.90;;;;;;5049742;28;20048;-66
2021/07/03 02:57:38;;;;;;;6.30;3.42;;;11.40;99.90;;;;;;5049849;28;20425;-65
2021/07/03 03:00:10;;;;;;;3.60;3.30;;;11.40;99.90;;;;;;5049764;28;20037;-66
2021/07/03 03:02:37;;;;;;;6.93;3.10;;;11.40;99.90;;;;;;5049895;28;20041;-66
2021/07/03 03:05:07;;;;;;;3.42;3.10;;;11.40;99.90;;;;;;5049967;28;20029;-66
2021/07/03 03:07:34;;;;;;;5.25;2.95;;;11.40;99.90;;;;;;5050022;28;20041;-66
2021/07/03 03:10:00;;;;;;;5.85;4.38;;;11.40;99.90;;;;;;5049489;28;20099;-66
2021/07/03 03:12:26;;;;;;;7.38;5.50;;;11.20;99.90;;;;;;5049665;28;20064;-65
2021/07/03 03:14:51;;;;;;;7.50;6.22;;;11.00;99.90;;;;;;5050083;28;20048;-66
2021/07/03 03:17:17;;;;;;;10.60;6.43;;;10.80;99.90;;;;;;5049551;28;20041;-66
2021/07/03 03:19:43;;;;;;;7.18;6.03;;;10.60;99.90;;;;;;5051410;28;20047;-66
2021/07/03 03:22:08;;;;;;;7.30;5.95;;;10.70;99.90;;;;;;5053395;28;20045;-65
2021/07/03 03:24:34;;;;;;;8.07;6.93;;;10.80;99.90;;;;;;5053036;28;20536;-65
2021/07/03 03:27:00;;;;;;;33.42;9.38;;;10.80;99.90;;;;;;5053268;28;20044;-66
2021/07/03 03:29:25;;;;;;;9.23;8.15;;;10.70;99.90;;;;;;5053192;28;20041;-65
2021/07/03 03:31:51;;;;;;;11.82;8.98;;;10.80;99.90;;;;;;5052972;28;20056;-66
2021/07/03 03:34:16;;;;;;;13.57;8.98;;;10.90;99.90;;;;;;5053127;28;20037;-66
2021/07/03 03:36:42;;;;;;;34.50;11.38;;;11.00;99.90;;;;;;5052842;28;20144;-66
2021/07/03 03:39:08;;;;;;;90.93;14.20;;;11.10;99.90;;;;;;5053011;28;20052;-65
2021/07/03 03:41:34;;;;;;;105.50;13.82;;;11.20;99.90;;;;;;5052807;28;20045;-66
2021/07/03 03:43:59;;;;;;;77.05;12.52;;;11.20;99.90;;;;;;5052827;28;20075;-65
2021/07/03 03:46:25;;;;;;;28.40;11.13;;;11.30;99.90;;;;;;5052508;28;20048;-66
2021/07/03 03:48:50;;;;;;;45.40;11.48;;;11.40;99.90;;;;;;5052646;28;20045;-66
2021/07/03 03:51:16;;;;;;;62.90;9.90;;;11.40;99.90;;;;;;5052582;28;20202;-66
2021/07/03 03:53:42;;;;;;;39.28;9.40;;;11.40;99.90;;;;;;5052765;28;20055;-66
2021/07/03 03:56:08;;;;;;;29.65;9.60;;;11.30;99.90;;;;;;5052666;28;20122;-66
2021/07/03 03:58:34;;;;;;;17.55;9.15;;;11.30;99.90;;;;;;5052602;28;20518;-66
2021/07/03 04:01:00;;;;;;;25.77;8.52;;;11.40;99.90;;;;;;5052477;28;20041;-66
2021/07/03 04:03:26;;;;;;;52.83;9.18;;;11.50;99.90;;;;;;5052524;28;20045;-66
2021/07/03 04:05:51;;;;;;;55.13;9.30;;;11.60;99.90;;;;;;5052425;28;20051;-66
2021/07/03 04:08:17;;;;;;;33.80;8.70;;;11.70;99.90;;;;;;5052315;28;20071;-66
2021/07/03 04:10:44;;;;;;;13.25;7.30;;;11.70;99.90;;;;;;5052154;28;20052;-66
2021/07/03 04:13:10;;;;;;;14.68;7.82;;;11.90;99.90;;;;;;5052714;28;20072;-66
2021/07/03 04:15:35;;;;;;;12.23;7.35;;;12.00;99.90;;;;;;5052282;28;20550;-66
2021/07/03 04:18:01;;;;;;;8.85;7.60;;;12.00;99.90;;;;;;5050915;28;20070;-66
2021/07/03 04:20:26;;;;;;;22.08;7.30;;;12.10;99.90;;;;;;5052227;28;20033;-66
2021/07/03 04:22:52;;;;;;;34.70;7.07;;;12.10;99.90;;;;;;5052323;28;20041;-66
2021/07/03 04:25:20;;;;;;;10.63;6.55;;;12.10;99.90;;;;;;5052189;28;20041;-66
2021/07/03 04:27:47;;;;;;;33.28;8.18;;;12.10;99.90;;;;;;5051958;28;20037;-66
2021/07/03 04:30:14;;;;;;;22.10;6.97;;;12.10;99.90;;;;;;5051298;28;20037;-66
2021/07/03 04:32:40;;;;;;;7.45;6.75;;;12.10;99.90;;;;;;5051370;28;20055;-66
2021/07/03 04:35:07;;;;;;;17.42;7.05;;;12.10;99.90;;;;;;5051772;28;20041;-66
2021/07/03 04:37:34;;;;;;;7.78;6.78;;;12.20;99.90;;;;;;5051653;28;20521;-66
2021/07/03 04:40:04;;;;;;;7.88;7.00;;;12.20;99.90;;;;;;5051879;28;20068;-68
2021/07/03 04:42:29;;;;;;;8.88;7.15;;;12.40;99.90;;;;;;5050358;28;20453;-68
2021/07/03 04:44:55;;;;;;;9.85;7.00;;;12.50;99.90;;;;;;5051619;28;20453;-66
2021/07/03 04:47:21;;;;;;;9.75;7.75;;;12.60;99.90;;;;;;5051394;28;20115;-66
2021/07/03 04:49:47;;;;;;;23.52;7.65;;;12.70;99.90;;;;;;5051722;28;20072;-66
2021/07/03 04:52:12;;;;;;;35.50;8.45;;;12.80;99.90;;;;;;5051586;28;20037;-66
2021/07/03 04:54:38;;;;;;;29.33;8.18;;;12.90;99.90;;;;;;5051763;28;20478;-66
2021/07/03 04:57:07;;;;;;;38.75;7.05;;;13.10;99.90;;;;;;5051310;28;20083;-66
2021/07/03 04:59:35;;;;;;;19.63;7.10;;;13.10;99.90;;;;;;5051380;28;20078;-66
2021/07/03 05:02:02;;;;;;;22.83;7.20;;;13.10;99.90;;;;;;5051205;28;20044;-66
2021/07/03 05:04:28;;;;;;;13.77;6.63;;;13.10;99.90;;;;;;5051223;28;20106;-66
2021/07/03 05:06:54;;;;;;;16.02;7.70;;;13.10;99.90;;;;;;5049973;28;20033;-66
2021/07/03 05:09:21;;;;;;;11.65;6.63;;;13.20;99.90;;;;;;5050905;28;20044;-66
2021/07/03 05:11:47;;;;;;;10.65;7.10;;;13.30;99.90;;;;;;5050960;28;20053;-66
2021/07/03 05:14:12;;;;;;;7.60;6.88;;;13.40;99.90;;;;;;5051244;28;20044;-66
2021/07/03 05:16:38;;;;;;;7.78;6.82;;;13.50;99.90;;;;;;5051109;28;20552;-66
2021/07/03 05:19:03;;;;;;;8.25;7.50;;;13.60;99.90;;;;;;5051151;28;20044;-66
2021/07/03 05:21:29;;;;;;;7.68;6.97;;;13.60;99.90;;;;;;5050872;28;20514;-66
2021/07/03 05:23:54;;;;;;;8.57;7.80;;;13.70;99.90;;;;;;5050917;28;20399;-66
2021/07/03 05:26:20;;;;;;;9.85;8.85;;;13.80;99.90;;;;;;5050786;28;20044;-66
2021/07/03 05:28:46;;;;;;;10.40;9.40;;;13.90;99.90;;;;;;5050654;28;20067;-66
2021/07/03 05:31:11;;;;;;;11.88;10.68;;;14.10;99.90;;;;;;5051002;28;20037;-66
2021/07/03 05:33:37;;;;;;;11.43;10.25;;;14.20;99.90;;;;;;5050610;28;20036;-66
2021/07/03 05:36:03;;;;;;;10.65;9.75;;;14.30;99.90;;;;;;5049579;28;20116;-66
2021/07/03 05:38:29;;;;;;;11.95;10.80;;;14.50;99.90;;;;;;5050698;28;20147;-66
2021/07/03 05:41:00;;;;;;;10.57;9.52;;;14.60;99.90;;;;;;5049542;28;20036;-66
2021/07/03 05:43:27;;;;;;;11.52;10.27;;;14.80;99.90;;;;;;5050793;28;20041;-66
2021/07/03 05:45:53;;;;;;;12.52;11.23;;;15.00;99.90;;;;;;5050747;28;20498;-67
2021/07/03 05:48:18;;;;;;;13.32;11.70;;;15.30;99.90;;;;;;5050446;28;20037;-67
2021/07/03 05:50:44;;;;;;;12.75;11.55;;;15.40;99.90;;;;;;5050623;28;20052;-66
2021/07/03 05:53:09;;;;;;;12.98;11.30;;;16.20;99.90;;;;;;5050576;28;20048;-66
2021/07/03 05:55:36;;;;;;;11.68;10.40;;;17.40;99.90;;;;;;5049203;28;20040;-67
2021/07/03 05:58:01;;;;;;;11.10;9.75;;;18.70;99.90;;;;;;5050387;28;20394;-67
2021/07/03 06:00:28;;;;;;;10.00;8.68;;;19.90;99.90;;;;;;5050415;28;20478;-67
2021/07/03 06:02:53;;;;;;;9.23;8.05;;;21.10;99.90;;;;;;5050352;28;20040;-66
2021/07/03 06:05:20;;;;;;;8.80;7.93;;;21.90;99.20;;;;;;5050315;28;20041;-67
2021/07/03 06:07:45;;;;;;;9.00;8.20;;;22.80;96.70;;;;;;5050230;28;20040;-67
2021/07/03 06:10:12;;;;;;;9.48;7.35;;;23.40;95.10;;;;;;5049973;28;20090;-66
2021/07/03 06:12:38;;;;;;;9.10;7.78;;;23.90;95.60;;;;;;5050275;28;20048;-66
2021/07/03 06:15:05;;;;;;;8.98;7.82;;;24.50;93.50;;;;;;5050398;28;20036;-67
2021/07/03 06:17:31;;;;;;;8.93;8.05;;;25.30;93.40;;;;;;5050159;28;20033;-67
2021/07/03 06:19:58;;;;;;;8.93;8.05;;;25.60;92.20;;;;;;5050149;28;20120;-67
2021/07/03 06:22:23;;;;;;;11.27;8.20;;;26.10;92.30;;;;;;5050179;28;20526;-67
2021/07/03 06:24:49;;;;;;;10.32;8.40;;;25.70;90.60;;;;;;5049905;28;20048;-67
2021/07/03 06:27:15;;;;;;;8.80;7.63;;;25.60;90.90;;;;;;5050243;28;20033;-66
2021/07/03 06:29:41;;;;;;;7.47;6.35;;;26.30;90.90;;;;;;5049937;28;20041;-67
2021/07/03 06:32:08;;;;;;;7.63;6.72;;;26.80;89.20;;;;;;5050169;28;20057;-66
2021/07/03 06:34:35;;;;;;;8.80;6.68;;;27.00;88.60;;;;;;5050260;28;20110;-67
2021/07/03 06:37:01;;;;;;;8.70;6.07;;;27.00;86.30;;;;;;5050610;28;20087;-67
2021/07/03 06:39:26;;;;;;;5.22;4.70;;;26.50;84.50;;;;;;5049825;28;20045;-67
2021/07/03 06:41:52;;;;;;;6.13;5.53;;;27.50;82.90;;;;;;5050078;28;20040;-67
2021/07/03 06:44:18;;;;;;;7.13;5.53;;;27.60;79.00;;;;;;5049848;28;20041;-67
2021/07/03 06:46:46;;;;;;;9.52;5.15;;;27.30;85.20;;;;;;5049973;28;20037;-67
2021/07/03 06:49:13;;;;;;;4.43;3.95;;;27.30;85.30;;;;;;5049721;28;20129;-67
2021/07/03 06:51:39;;;;;;;8.65;4.97;;;26.80;83.30;;;;;;5050008;28;20112;-66
2021/07/03 06:54:05;;;;;;;6.55;4.97;;;26.90;82.50;;;;;;5050576;28;20665;-66
2021/07/03 06:56:31;;;;;;;7.40;5.32;;;26.20;85.00;;;;;;5053763;28;20068;-67
2021/07/03 06:58:56;;;;;;;8.25;5.47;;;25.70;83.90;;;;;;5053867;28;20069;-67
2021/07/03 07:01:22;;;;;;;8.55;5.35;;;24.50;88.30;;;;;;5053676;28;20041;-67
2021/07/03 07:03:48;;;;;;;7.03;5.60;;;24.20;91.10;;;;;;5054001;28;20059;-66
2021/07/03 07:06:14;;;;;;;6.22;4.95;;;24.60;90.60;;;;;;5053507;28;20048;-67
2021/07/03 07:08:40;;;;;;;7.05;6.22;;;24.40;90.80;;;;;;5053326;28;20075;-67
2021/07/03 07:11:05;;;;;;;6.90;6.07;;;23.50;90.60;;;;;;5053563;28;20049;-66
2021/07/03 07:13:31;;;;;;;6.03;4.63;;;23.10;92.00;;;;;;5053586;28;20072;-66
2021/07/03 07:15:57;;;;;;;8.90;4.50;;;23.70;92.70;;;;;;5053503;28;20041;-66
2021/07/03 07:18:23;;;;;;;5.18;4.10;;;24.60;91.80;;;;;;5053435;28;20044;-67
2021/07/03 07:20:49;;;;;;;6.15;4.18;;;24.80;90.10;;;;;;5035312;28;20051;-67
2021/07/03 07:23:15;;;;;;;6.65;3.95;;;25.70;89.80;;;;;;5053247;28;20116;-67
2021/07/03 07:25:41;;;;;;;7.10;4.10;;;26.40;87.50;;;;;;5032213;23;20063;-68
2021/07/03 07:28:07;;;;;;;4.53;4.00;;;25.90;84.00;;;;;;5033186;28;20044;-68
2021/07/03 07:30:33;;;;;;;7.70;4.07;;;27.20;83.60;;;;;;5015239;28;20034;-68
2021/07/03 07:32:58;;;;;;;6.18;4.32;;;27.60;81.80;;;;;;5033146;28;20041;-68
2021/07/03 07:35:24;;;;;;;6.15;4.20;;;27.50;78.10;;;;;;5032819;28;20470;-67
2021/07/03 07:37:51;;;;;;;5.35;3.50;;;28.00;81.80;;;;;;5033019;28;20045;-68
2021/07/03 07:40:18;;;;;;;6.13;3.83;;;28.40;79.80;;;;;;5032819;28;20398;-67
2021/07/03 07:42:44;;;;;;;5.95;3.60;;;28.60;80.80;;;;;;5032943;28;20033;-67
2021/07/03 07:45:11;;;;;;;8.23;4.85;;;28.40;78.30;;;;;;5014900;28;20037;-68
2021/07/03 07:47:36;;;;;;;6.25;4.30;;;28.20;74.10;;;;;;5032839;28;20403;-67
2021/07/03 07:50:05;;;;;;;6.55;4.60;;;27.30;78.10;;;;;;5032563;28;20040;-67
2021/07/03 07:52:31;;;;;;;7.25;5.05;;;27.50;81.80;;;;;;5032756;28;20049;-67
2021/07/03 07:54:57;;;;;;;5.93;4.40;;;27.00;80.50;;;;;;5032620;28;20034;-67
2021/07/03 07:57:22;;;;;;;8.02;4.88;;;26.30;83.60;;;;;;5014817;28;20111;-67
2021/07/03 07:59:49;;;;;;;6.63;4.53;;;26.20;85.80;;;;;;5032519;28;20051;-67
2021/07/03 08:02:15;;;;;;;7.65;5.45;;;26.10;85.50;;;;;;5032421;28;20506;-67
2021/07/03 08:04:40;;;;;;;5.90;4.18;;;25.30;83.80;;;;;;5032227;28;20038;-67
2021/07/03 08:07:07;;;;;;;9.07;5.85;;;25.10;88.40;;;;;;5031315;28;20499;-67
2021/07/03 08:09:32;;;;;;;9.23;4.80;;;24.90;89.00;;;;;;5032215;28;20059;-67
2021/07/03 08:11:58;;;;;;;7.47;4.93;;;24.60;90.40;;;;;;5031122;28;20113;-67
2021/07/03 08:14:24;;;;;;;7.18;5.10;;;24.50;91.30;;;;;;5032535;28;20064;-68
2021/07/03 08:16:50;;;;;;;10.50;5.75;;;24.50;91.40;;;;;;5032429;28;20368;-67
2021/07/03 08:19:16;;;;;;;5.57;4.93;;;24.10;91.30;;;;;;5032306;28;20049;-67
2021/07/03 08:21:43;;;;;;;9.50;5.30;;;23.70;92.40;;;;;;5032294;28;20131;-67
2021/07/03 08:24:08;;;;;;;8.32;5.93;;;23.40;92.80;;;;;;5032191;28;20037;-68
2021/07/03 08:26:34;;;;;;;8.73;5.90;;;22.80;92.80;;;;;;5031840;28;20483;-67
2021/07/03 08:29:00;;;;;;;8.50;6.20;;;22.70;93.70;;;;;;5031994;28;20542;-67
2021/07/03 08:31:25;;;;;;;7.55;6.13;;;22.40;94.60;;;;;;5031954;28;20037;-66
2021/07/03 08:33:51;;;;;;;9.52;6.60;;;22.50;94.60;;;;;;5031868;28;20468;-67
2021/07/03 08:36:17;;;;;;;7.85;6.03;;;22.50;94.80;;;;;;5031814;28;20041;-67
2021/07/03 08:38:42;;;;;;;8.40;6.10;;;22.50;94.60;;;;;;5014232;28;20124;-67
2021/07/03 08:41:11;;;;;;;11.00;7.63;;;22.70;94.50;;;;;;5031795;28;20049;-67
2021/07/03 08:43:46;;;;;;;7.68;6.50;;;22.50;94.60;;;;;;5031892;28;20395;-67
2021/07/03 08:46:12;;;;;;;10.27;7.80;;;22.70;95.50;;;;;;5013728;28;20117;-67
2021/07/03 08:48:38;;;;;;;10.90;7.53;;;22.50;94.60;;;;;;5031619;28;20561;-67
2021/07/03 08:51:04;;;;;;;7.85;6.50;;;22.70;94.10;;;;;;5031596;28;20120;-67
2021/07/03 08:53:29;;;;;;;12.15;7.55;;;22.80;94.40;;;;;;5014166;28;20041;-67
2021/07/03 08:55:55;;;;;;;11.27;8.98;;;22.90;94.10;;;;;;5031277;28;20037;-67
2021/07/03 08:58:21;;;;;;;10.23;8.73;;;23.00;93.20;;;;;;5031240;28;20045;-67
2021/07/03 09:00:47;;;;;;;11.10;9.07;;;23.30;93.40;;;;;;5031410;28;20041;-67
2021/07/03 09:03:22;;;;;;;11.35;10.15;;;23.00;93.40;;;;;;5031332;28;20120;-67
2021/07/03 09:05:54;;;;;;;12.57;9.32;;;23.40;93.70;;;;;;5013608;28;20498;-67
2021/07/03 09:08:28;;;;;;;12.85;10.13;;;23.60;93.40;;;;;;5031372;28;20041;-67
2021/07/03 09:11:08;;;;;;;14.73;12.63;;;23.60;92.60;;;;;;5031217;28;20037;-67
2021/07/03 09:13:38;;;;;;;13.30;11.90;;;23.50;92.40;;;;;;5031158;28;20037;-67
2021/07/03 09:16:04;;;;;;;16.13;12.35;;;23.80;92.40;;;;;;5013717;28;20072;-67
2021/07/03 09:18:31;;;;;;;14.10;12.63;;;24.00;91.90;;;;;;5013115;28;20037;-67
2021/07/03 09:20:58;;;;;;;13.25;11.93;;;23.50;91.80;;;;;;5030988;28;20494;-67
2021/07/03 09:23:34;;;;;;;13.15;11.07;;;23.80;92.10;;;;;;5031136;28;20057;-67
2021/07/03 09:26:03;;;;;;;15.52;12.55;;;24.00;91.50;;;;;;5018729;28;20057;-67
2021/07/03 09:28:37;;;;;;;15.43;11.80;;;23.30;91.80;;;;;;5011291;28;20077;-67
2021/07/03 09:31:03;;;;;;;14.15;11.05;;;23.30;93.00;;;;;;5011409;28;20049;-67
2021/07/03 09:33:31;;;;;;;13.90;12.20;;;23.30;92.80;;;;;;5011172;28;20161;-67
2021/07/03 09:35:58;;;;;;;13.70;12.20;;;23.00;93.00;;;;;;5011100;28;20034;-67
2021/07/03 09:38:39;;;;;;;12.25;10.57;;;23.20;93.20;;;;;;5009683;28;20518;-67
2021/07/03 09:41:14;;;;;;;11.40;9.02;;;23.20;93.10;;;;;;5011241;28;20034;-67
2021/07/03 09:43:52;;;;;;;10.48;9.38;;;23.00;92.10;;;;;;5009761;28;20484;-67
2021/07/03 09:46:26;;;;;;;12.43;9.65;;;23.00;92.50;;;;;;5010946;28;20547;-67
2021/07/03 09:48:58;;;;;;;11.27;8.98;;;23.20;93.10;;;;;;5009602;28;20061;-67
2021/07/03 09:51:25;;;;;;;;;;;23.50;93.00;;;;;;5011497;28;20071;-68
2021/07/03 09:53:51;;;;;;;11.90;9.93;;;23.60;92.80;;;;;;5010875;28;19917;-67
2021/07/03 09:56:17;;;;;;;10.35;9.25;;;23.70;92.40;;;;;;5010637;28;20034;-67
2021/07/03 09:58:44;;;;;;;12.43;9.10;;;23.70;92.70;;;;;;5010776;28;20169;-67
2021/07/03 10:01:10;;;;;;;9.20;8.13;;;23.80;92.40;;;;;;5010662;28;20059;-67
2021/07/03 10:03:39;;;;;;;8.60;7.45;;;24.00;92.50;;;;;;5010506;28;20491;-67
2021/07/03 10:06:07;;;;;;;9.52;7.57;;;24.00;91.70;;;;;;5010731;28;20037;-67
2021/07/03 10:08:39;;;;;;;10.23;8.15;;;24.20;92.30;;;;;;5010452;28;20042;-67
2021/07/03 10:11:08;;;;;;;10.52;8.75;;;24.40;91.60;;;;;;5010650;28;20092;-67
2021/07/03 10:13:34;;;;;;;8.60;7.50;;;24.50;91.40;;;;;;5010779;28;20052;-67
2021/07/03 10:16:08;;;;;;;9.85;7.65;;;24.70;91.00;;;;;;5011111;28;20069;-67
2021/07/03 10:18:35;;;;;;;8.32;6.63;;;24.40;90.20;;;;;;5010342;28;20034;-66
2021/07/03 10:21:11;;;;;;;7.45;6.75;;;24.30;90.70;;;;;;5010592;28;20042;-67
2021/07/03 10:23:42;;;;;;;8.05;6.93;;;24.50;91.60;;;;;;5010368;28;20042;-67
2021/07/03 10:26:09;;;;;;;7.78;7.00;;;24.20;90.60;;;;;;5023340;28;20052;-67
2021/07/03 10:28:37;;;;;;;8.50;6.43;;;24.40;91.30;;;;;;5030075;28;20483;-67
2021/07/03 10:31:14;;;;;;;7.50;6.75;;;24.60;91.20;;;;;;5034311;28;20095;-67
2021/07/03 10:33:41;;;;;;;8.52;7.63;;;24.40;90.70;;;;;;5034132;28;20029;-67
2021/07/03 10:36:06;;;;;;;7.75;6.97;;;24.00;90.70;;;;;;5034277;28;20037;-67
2021/07/03 10:38:42;;;;;;;7.38;6.45;;;24.20;91.30;;;;;;5034049;28;20095;-68
2021/07/03 10:41:23;;;;;;;7.72;6.18;;;24.30;91.50;;;;;;5034053;28;20109;-67
2021/07/03 10:43:53;;;;;;;6.63;5.88;;;24.50;89.60;;;;;;5033990;28;20128;-67
2021/07/03 10:46:25;;;;;;;6.30;5.70;;;24.30;88.90;;;;;;5016462;28;20134;-67
2021/07/03 10:49:03;;;;;;;6.28;5.68;;;24.00;90.00;;;;;;5033797;28;20403;-67
2021/07/03 10:51:47;;;;;;;7.05;5.68;;;24.40;91.20;;;;;;5033968;28;20107;-68
2021/07/03 10:54:21;;;;;;;8.10;6.03;;;24.60;90.00;;;;;;5033654;28;20037;-67
2021/07/03 10:57:00;;;;;;;6.95;5.57;;;24.20;89.60;;;;;;5033995;28;20037;-67
2021/07/03 10:59:27;;;;;;;6.97;6.28;;;24.30;90.60;;;;;;5033240;28;20095;-67
2021/07/03 11:01:53;;;;;;;6.70;5.75;;;24.30;90.50;;;;;;5033694;28;20033;-67
2021/07/03 11:04:21;;;;;;;8.10;5.80;;;24.30;91.50;;;;;;5033542;28;20042;-68
2021/07/03 11:06:50;;;;;;;7.60;5.72;;;24.50;91.50;;;;;;5033777;28;20549;-67
2021/07/03 11:09:24;;;;;;;6.70;5.10;;;24.60;90.60;;;;;;5033374;28;20453;-67
2021/07/03 11:11:49;;;;;;;5.97;4.43;;;24.50;90.40;;;;;;5033647;28;20041;-67
2021/07/03 11:14:19;;;;;;;8.35;5.13;;;24.40;90.70;;;;;;5033354;28;20037;-67
2021/07/03 11:16:58;;;;;;;6.18;5.15;;;24.40;90.10;;;;;;5033600;28;20060;-67
2021/07/03 11:19:28;;;;;;;6.13;5.53;;;24.30;90.40;;;;;;5033330;28;20048;-67
2021/07/03 11:22:10;;;;;;;7.00;5.43;;;24.50;90.40;;;;;;5033392;28;20041;-67
2021/07/03 11:24:50;;;;;;;7.03;5.72;;;24.30;90.10;;;;;;5032417;28;20033;-66
2021/07/03 11:27:40;;;;;;;6.47;5.05;;;24.00;90.30;;;;;;5013646;28;20435;-67
2021/07/03 11:30:22;;;;;;;7.30;4.78;;;24.40;90.90;;;;;;5013339;28;20081;-67
2021/07/03 11:32:53;;;;;;;5.35;4.75;;;24.40;90.20;;;;;;5013424;28;20046;-67
2021/07/03 11:35:20;;;;;;;4.97;4.28;;;24.80;90.20;;;;;;5013383;28;20042;-67
2021/07/03 11:37:45;;;;;;;4.13;3.67;;;25.20;89.40;;;;;;5013496;28;20038;-67
2021/07/03 11:40:23;;;;;;;6.00;3.35;;;25.40;89.60;;;;;;5012985;28;20045;-67
2021/07/03 11:42:53;;;;;;;4.22;3.40;;;25.60;88.10;;;;;;5013335;28;20117;-67
2021/07/03 11:45:23;;;;;;;6.95;4.65;;;25.70;87.30;;;;;;5013139;28;20156;-67
2021/07/03 11:47:51;;;;;;;5.20;4.63;;;25.80;84.60;;;;;;5013137;28;20117;-67
2021/07/03 11:50:25;;;;;;;5.68;4.88;;;25.90;86.90;;;;;;5012864;28;20550;-67
2021/07/03 11:52:53;;;;;;;4.82;4.40;;;25.80;84.50;;;;;;5013076;28;20054;-68
2021/07/03 11:55:25;;;;;;;5.43;4.03;;;25.70;84.90;;;;;;5012983;28;20333;-67
2021/07/03 11:57:51;;;;;;;4.15;3.75;;;25.60;85.20;;;;;;5013009;28;20045;-67
2021/07/03 12:00:20;;;;;;;4.43;3.97;;;25.50;86.60;;;;;;5012686;28;20419;-67
2021/07/03 12:02:46;;;;;;;6.13;4.25;;;25.70;87.50;;;;;;5011662;28;20037;-67
2021/07/03 12:05:13;;;;;;;4.85;4.13;;;25.80;86.30;;;;;;5012679;28;20526;-68
2021/07/03 12:07:40;;;;;;;5.38;4.60;;;25.90;86.30;;;;;;5012825;28;20042;-68
2021/07/03 12:10:09;;;;;;;6.40;4.90;;;25.60;80.80;;;;;;5012501;28;20054;-68
2021/07/03 12:12:35;;;;;;;6.63;4.53;;;25.70;86.00;;;;;;5012573;28;20522;-68
2021/07/03 12:15:11;;;;;;;4.80;4.40;;;25.60;81.40;;;;;;5012608;28;20044;-67
2021/07/03 12:17:49;;;;;;;6.78;4.72;;;25.90;87.00;;;;;;5012623;28;20041;-68
2021/07/03 12:20:17;;;;;;;6.25;4.85;;;26.20;87.30;;;;;;5012447;28;20687;-67
2021/07/03 12:23:01;;;;;;;4.38;3.97;;;26.00;83.30;;;;;;5012445;28;20065;-67
2021/07/03 12:25:28;;;;;;;5.88;3.95;;;26.10;86.90;;;;;;5019370;28;20053;-68
2021/07/03 12:27:59;;;;;;;4.10;3.70;;;26.00;84.30;;;;;;5032319;28;20048;-67
2021/07/03 12:30:26;;;;;;;5.68;4.63;;;25.80;80.60;;;;;;5031844;28;20136;-68
2021/07/03 12:33:09;;;;;;;4.32;3.92;;;25.40;82.50;;;;;;5032059;28;20041;-67
2021/07/03 12:35:54;;;;;;;4.85;4.45;;;25.50;85.00;;;;;;5031737;28;20479;-68
2021/07/03 12:38:26;;;;;;;4.80;4.30;;;25.60;86.00;;;;;;5014251;28;20049;-67
2021/07/03 12:40:52;;;;;;;4.57;4.00;;;25.70;85.40;;;;;;5031754;28;20052;-68
2021/07/03 12:43:27;;;;;;;5.88;4.28;;;25.50;85.10;;;;;;5031809;28;20120;-67
2021/07/03 12:46:04;;;;;;;5.13;4.57;;;25.30;83.80;;;;;;5031582;28;20431;-67